Time;durP1;ratioP1;P1;durP2;ratioP2;P2;SDS_P1;SDS_P2;PMS_P1;PMS_P2;Temp;Humidity;BMP_temperature;BMP_pressure;BME280_temperature;BME280_humidity;BME280_pressure;Samples;Min_cycle;Max_cycle;Signal;HPM_P1;HPM_P2
2023/09/06 00:01:39;;;;;;;4.90;4.10;;;;;;;19.65;85.92;101171.34;6160635;23;20458;-83
2023/09/06 00:04:08;;;;;;;8.30;4.40;;;;;;;19.58;86.33;101178.47;6162614;23;20021;-82
2023/09/06 00:06:35;;;;;;;7.18;4.50;;;;;;;19.51;86.48;101168.66;6164332;23;20127;-82
2023/09/06 00:09:03;;;;;;;6.00;4.60;;;;;;;19.49;86.57;101170.66;6165150;23;20097;-84
2023/09/06 00:11:32;;;;;;;5.25;4.30;;;;;;;19.43;86.66;101165.34;6162259;23;20045;-82
2023/09/06 00:14:03;;;;;;;6.25;4.20;;;;;;;19.37;86.92;101166.16;6161626;23;20099;-84
2023/09/06 00:16:31;;;;;;;7.40;4.70;;;;;;;19.33;87.22;101159.63;6162101;23;20025;-83
2023/09/06 00:18:59;;;;;;;6.53;4.25;;;;;;;19.28;87.14;101154.91;6158960;23;20466;-83
2023/09/06 00:21:26;;;;;;;6.85;4.68;;;;;;;19.30;87.16;101157.38;6160705;23;20036;-81
2023/09/06 00:23:58;;;;;;;5.50;4.25;;;;;;;19.33;87.24;101163.09;6161961;23;20028;-81
2023/09/06 00:26:26;;;;;;;7.55;5.10;;;;;;;19.23;87.26;101152.03;6168901;23;20026;-81
2023/09/06 00:28:54;;;;;;;7.82;4.88;;;;;;;19.18;87.72;101150.00;6166576;23;20028;-82
2023/09/06 00:31:21;;;;;;;6.68;4.60;;;;;;;19.18;87.71;101157.13;6167897;23;20021;-82
2023/09/06 00:33:51;;;;;;;7.65;4.55;;;;;;;19.14;88.03;101161.19;6167390;23;20076;-83
2023/09/06 00:36:28;;;;;;;7.20;4.80;;;;;;;19.00;88.13;101133.81;6169376;23;20022;-83
2023/09/06 00:39:14;;;;;;;5.65;4.30;;;;;;;18.99;88.25;101141.97;6167046;23;20021;-83
2023/09/06 00:42:11;;;;;;;7.18;4.88;;;;;;;18.93;88.32;101137.44;6163183;23;20025;-85
2023/09/06 00:44:44;;;;;;;5.93;4.43;;;;;;;18.84;88.66;101135.00;6164389;23;20021;-83
2023/09/06 00:47:24;;;;;;;7.63;4.68;;;;;;;18.85;88.64;101149.06;6163058;23;20032;-84
2023/09/06 00:50:04;;;;;;;9.05;4.68;;;;;;;18.75;88.84;101140.66;6158169;23;20127;-84
2023/09/06 00:52:36;;;;;;;5.80;4.40;;;;;;;18.79;88.92;101144.53;6158736;23;20105;-84
2023/09/06 00:55:06;;;;;;;6.38;4.40;;;;;;;18.96;88.86;101177.66;6162537;23;20179;-81
2023/09/06 00:57:36;;;;;;;8.63;4.65;;;;;;;18.95;89.19;101177.84;6167622;23;20462;-83
2023/09/06 01:00:05;;;;;;;6.72;4.85;;;;;;;18.89;88.90;101164.38;6168112;23;20048;-82
2023/09/06 01:02:40;;;;;;;8.18;4.78;;;;;;;18.95;89.23;101178.66;6160515;23;20025;-84
2023/09/06 01:05:09;;;;;;;6.60;4.60;;;;;;;18.70;89.78;101151.84;6160498;23;20025;-83
2023/09/06 01:07:41;;;;;;;6.40;4.50;;;;;;;18.78;90.23;101185.34;6160177;23;20041;-85
2023/09/06 01:10:08;;;;;;;5.78;4.68;;;;;;;18.60;91.02;101180.53;6169020;23;20088;-81
2023/09/06 01:12:44;;;;;;;5.80;4.40;;;;;;;18.50;91.55;101180.03;6168326;23;20021;-83
2023/09/06 01:15:12;;;;;;;5.68;4.68;;;;;;;18.47;91.83;101177.75;6172746;23;20104;-82
2023/09/06 01:17:53;;;;;;;6.05;4.45;;;;;;;18.40;92.29;101177.75;6171246;23;20029;-82
2023/09/06 01:20:37;;;;;;;7.55;4.38;;;;;;;18.35;92.56;101189.94;6170210;23;20043;-84
2023/09/06 01:23:13;;;;;;;6.45;4.65;;;;;;;18.20;93.10;101182.91;6157637;23;20030;-82
2023/09/06 01:25:45;;;;;;;8.35;4.68;;;;;;;18.14;93.80;101193.44;6158404;23;20027;-83
2023/09/06 01:28:19;;;;;;;7.53;5.00;;;;;;;18.05;94.34;101182.16;6157417;23;20073;-83
2023/09/06 01:30:46;;;;;;;5.57;4.68;;;;;;;17.89;94.56;101153.31;6163924;23;20032;-80
2023/09/06 01:33:16;;;;;;;6.95;5.20;;;;;;;18.09;95.06;101183.41;6164914;23;20026;-82
2023/09/06 01:35:45;;;;;;;6.05;5.13;;;;;;;17.95;95.68;101171.09;6164614;23;20458;-83
2023/09/06 01:38:15;;;;;;;10.93;5.38;;;;;;;18.01;96.15;101188.84;6161068;23;20520;-83
2023/09/06 01:40:43;;;;;;;7.72;5.00;;;;;;;18.01;96.70;101190.66;6160851;23;20025;-81
2023/09/06 01:43:13;;;;;;;7.05;5.40;;;;;;;17.85;96.88;101171.41;6160998;23;20022;-82
2023/09/06 01:45:45;;;;;;;9.52;5.50;;;;;;;17.89;96.97;101169.22;6164723;23;20076;-82
2023/09/06 01:48:14;;;;;;;9.73;5.50;;;;;;;17.92;96.82;101190.00;6165749;23;20033;-81
2023/09/06 01:50:42;;;;;;;13.05;5.35;;;;;;;17.87;97.03;101181.81;6166240;23;20064;-83
2023/09/06 01:53:09;;;;;;;8.38;5.30;;;;;;;17.85;97.49;101183.84;6165181;23;20084;-81
2023/09/06 01:55:37;;;;;;;10.20;5.55;;;;;;;17.82;97.66;101182.38;6168461;23;20044;-83
2023/09/06 01:58:06;;;;;;;9.15;5.07;;;;;;;17.78;97.95;101177.66;6161555;23;20025;-81
2023/09/06 02:00:34;;;;;;;7.53;5.50;;;;;;;17.82;98.07;101176.28;6162238;23;20032;-81
2023/09/06 02:03:01;;;;;;;8.02;5.60;;;;;;;17.73;98.16;101180.88;6163937;23;20021;-80
2023/09/06 02:05:30;;;;;;;7.78;5.55;;;;;;;17.68;98.30;101187.72;6163449;23;20311;-80
2023/09/06 02:07:57;;;;;;;7.50;5.47;;;;;;;17.61;98.62;101190.28;6162354;23;20347;-80
2023/09/06 02:10:24;;;;;;;8.90;5.50;;;;;;;17.56;98.97;101196.13;6163333;23;20040;-80
2023/09/06 02:12:51;;;;;;;8.32;5.00;;;;;;;17.53;99.21;101190.41;6163602;23;20096;-81
2023/09/06 02:15:19;;;;;;;8.77;5.80;;;;;;;17.50;99.27;101188.13;6162767;23;20026;-82
2023/09/06 02:17:45;;;;;;;9.60;6.07;;;;;;;17.49;99.28;101189.94;6163471;23;20024;-81
2023/09/06 02:20:17;;;;;;;6.45;5.40;;;;;;;17.42;99.59;101189.09;6165082;23;20022;-81
2023/09/06 02:22:44;;;;;;;6.82;5.40;;;;;;;17.41;99.63;101186.63;6167236;23;20057;-80
2023/09/06 02:25:11;;;;;;;8.95;5.82;;;;;;;17.39;100.00;101192.09;6164652;23;20021;-81
2023/09/06 02:27:37;;;;;;;6.88;5.32;;;;;;;17.33;100.00;101200.78;6165660;23;20059;-81
2023/09/06 02:30:06;;;;;;;7.70;5.95;;;;;;;17.31;100.00;101192.22;6164420;23;20226;-81
2023/09/06 02:32:35;;;;;;;7.13;5.70;;;;;;;17.23;100.00;101195.78;6163824;23;20036;-82
2023/09/06 02:35:02;;;;;;;6.70;5.65;;;;;;;17.20;100.00;101190.03;6164540;23;20029;-81
2023/09/06 02:37:29;;;;;;;8.93;5.70;;;;;;;17.16;100.00;101205.47;6163205;23;20131;-81
2023/09/06 02:39:56;;;;;;;7.47;5.70;;;;;;;17.10;100.00;101194.78;6164225;23;20045;-80
2023/09/06 02:42:23;;;;;;;7.43;5.95;;;;;;;17.10;100.00;101215.94;6161911;23;20055;-80
2023/09/06 02:44:50;;;;;;;8.77;6.22;;;;;;;17.00;100.00;101205.69;6163219;23;20044;-81
2023/09/06 02:47:17;;;;;;;7.82;5.78;;;;;;;16.99;100.00;101208.50;6162941;23;20073;-81
2023/09/06 02:49:47;;;;;;;7.75;6.20;;;;;;;17.00;100.00;101197.75;6164183;23;20394;-81
2023/09/06 02:52:20;;;;;;;8.80;6.30;;;;;;;17.03;100.00;101205.28;6164840;23;20021;-81
2023/09/06 02:54:47;;;;;;;8.80;6.20;;;;;;;17.00;100.00;101200.41;6163105;23;20026;-80
2023/09/06 02:57:15;;;;;;;9.02;6.20;;;;;;;17.02;100.00;101202.81;6161629;23;20026;-80
2023/09/06 02:59:41;;;;;;;9.45;5.90;;;;;;;17.00;100.00;101204.88;6162095;23;20102;-80
2023/09/06 03:02:08;;;;;;;7.60;5.70;;;;;;;16.98;100.00;101212.16;6163328;23;20375;-79
2023/09/06 03:04:37;;;;;;;7.20;5.82;;;;;;;16.95;100.00;101207.22;6163566;23;20026;-80
2023/09/06 03:07:07;;;;;;;7.97;5.88;;;;;;;16.95;100.00;101207.22;6160421;23;20017;-80
2023/09/06 03:09:35;;;;;;;8.18;6.03;;;;;;;16.95;100.00;101215.16;6160963;23;20366;-79
2023/09/06 03:12:07;;;;;;;7.05;6.00;;;;;;;16.91;100.00;101207.59;6159725;23;20063;-79
2023/09/06 03:14:36;;;;;;;6.53;5.72;;;;;;;16.92;100.00;101217.16;6164189;23;20029;-78
2023/09/06 03:17:08;;;;;;;11.07;5.50;;;;;;;16.87;100.00;101211.59;6169060;23;20025;-80
2023/09/06 03:19:38;;;;;;;8.23;5.72;;;;;;;16.90;100.00;101215.72;6172579;23;20025;-79
2023/09/06 03:22:09;;;;;;;13.15;6.10;;;;;;;16.87;100.00;101218.72;6167492;23;20025;-81
2023/09/06 03:24:40;;;;;;;8.57;5.77;;;;;;;16.84;100.00;101222.53;6178397;23;20230;-79
2023/09/06 03:27:07;;;;;;;7.20;6.20;;;;;;;16.83;100.00;101220.91;6178536;23;20014;-79
2023/09/06 03:29:36;;;;;;;7.07;5.75;;;;;;;16.88;100.00;101215.91;6168772;23;20402;-80
2023/09/06 03:32:07;;;;;;;9.10;6.10;;;;;;;16.94;100.00;101221.47;6163039;23;20478;-80
2023/09/06 03:34:34;;;;;;;8.55;6.00;;;;;;;16.90;100.00;101229.75;6163403;23;20057;-79
2023/09/06 03:37:01;;;;;;;6.85;6.00;;;;;;;16.89;100.00;101222.81;6164743;23;20053;-80
2023/09/06 03:39:29;;;;;;;8.45;5.95;;;;;;;16.87;100.00;101237.22;6170055;23;20025;-80
2023/09/06 03:42:00;;;;;;;9.10;6.05;;;;;;;16.83;100.00;101234.13;6167780;23;20053;-80
2023/09/06 03:44:27;;;;;;;7.43;6.13;;;;;;;16.82;100.00;101232.47;6169040;23;20029;-81
2023/09/06 03:46:56;;;;;;;8.35;5.95;;;;;;;16.85;100.00;101233.94;6167650;23;20025;-80
2023/09/06 03:49:23;;;;;;;8.75;6.32;;;;;;;16.86;100.00;101236.41;6164596;23;20021;-81
2023/09/06 03:51:51;;;;;;;10.10;6.07;;;;;;;16.85;100.00;101234.75;6168243;23;20049;-80
2023/09/06 03:54:20;;;;;;;7.15;5.30;;;;;;;16.87;100.00;101238.03;6167789;23;20457;-81
2023/09/06 03:56:49;;;;;;;10.13;5.97;;;;;;;16.85;100.00;101232.13;6171128;23;20025;-80
2023/09/06 03:59:16;;;;;;;8.50;5.90;;;;;;;16.83;100.00;101233.31;6169753;23;20490;-81
2023/09/06 04:01:43;;;;;;;12.25;5.82;;;;;;;16.76;100.00;101241.13;6166596;23;20096;-79
2023/09/06 04:04:12;;;;;;;6.85;5.70;;;;;;;16.75;100.00;101244.78;6170476;23;20057;-79
2023/09/06 04:06:43;;;;;;;9.93;6.30;;;;;;;16.69;100.00;101247.31;6174696;23;20060;-80
2023/09/06 04:09:13;;;;;;;7.03;5.45;;;;;;;16.63;100.00;101240.91;6166018;23;20018;-81
2023/09/06 04:11:41;;;;;;;8.05;5.90;;;;;;;16.58;100.00;101253.81;6166517;23;20484;-81
2023/09/06 04:14:12;;;;;;;9.90;6.13;;;;;;;16.56;100.00;101253.19;6166967;23;20025;-81
2023/09/06 04:16:38;;;;;;;8.13;5.82;;;;;;;16.49;100.00;101252.28;6166587;23;20026;-81
2023/09/06 04:19:06;;;;;;;8.02;5.68;;;;;;;16.47;100.00;101260.41;6165219;23;20032;-81
2023/09/06 04:21:33;;;;;;;10.27;6.68;;;;;;;16.46;100.00;101256.09;6164217;23;20185;-80
2023/09/06 04:24:00;;;;;;;8.48;6.10;;;;;;;16.46;100.00;101257.94;6168819;23;20049;-81
2023/09/06 04:26:55;;;;;;;9.07;6.22;;;;;;;16.40;100.00;101248.06;6173174;23;20029;-81
2023/09/06 04:29:42;;;;;;;9.05;6.45;;;;;;;16.49;100.00;101266.31;6173892;23;20077;-80
2023/09/06 04:32:09;;;;;;;8.15;6.25;;;;;;;16.52;100.00;101265.97;6169413;23;20018;-80
2023/09/06 04:34:35;;;;;;;9.25;5.93;;;;;;;16.48;100.00;101263.84;6163792;23;20363;-80
2023/09/06 04:37:11;;;;;;;8.70;6.60;;;;;;;16.52;100.00;101268.59;6164178;23;20027;-81
2023/09/06 04:39:48;;;;;;;11.15;5.80;;;;;;;16.50;100.00;101267.97;6167362;23;20029;-82
2023/09/06 04:42:21;;;;;;;9.18;6.03;;;;;;;16.49;100.00;101261.03;6164695;23;20026;-81
2023/09/06 04:47:43;;;;;;;8.02;6.10;;;;;;;16.43;100.00;101256.47;6163036;23;20077;-81
2023/09/06 04:50:18;;;;;;;9.40;6.10;;;;;;;16.45;100.00;101274.78;6165753;23;20029;-81
2023/09/06 04:53:19;;;;;;;10.15;6.30;;;;;;;16.40;100.00;101266.56;6166950;23;20381;-81
2023/09/06 04:55:52;;;;;;;8.60;5.75;;;;;;;16.43;100.00;101271.50;6160073;23;20029;-81
2023/09/06 04:58:24;;;;;;;6.88;5.65;;;;;;;16.27;100.00;101241.56;6166448;23;20017;-81
2023/09/06 05:01:07;;;;;;;6.90;5.88;;;;;;;16.31;100.00;101251.78;6166624;23;20025;-81
2023/09/06 05:03:45;;;;;;;7.97;6.15;;;;;;;16.29;100.00;101248.50;6165106;23;20337;-80
2023/09/06 05:06:20;;;;;;;7.65;6.18;;;;;;;16.39;100.00;101271.03;6163006;23;20085;-81
2023/09/06 05:09:10;;;;;;;8.38;6.43;;;;;;;16.37;100.00;101272.19;6162031;23;20013;-82
2023/09/06 05:11:53;;;;;;;7.65;5.80;;;;;;;16.23;100.00;101258.78;6162919;23;20086;-82
2023/09/06 05:14:24;;;;;;;7.82;5.72;;;;;;;16.29;100.00;101269.63;6161602;23;20028;-81
2023/09/06 05:16:53;;;;;;;8.17;6.23;;;;;;;16.29;100.00;101270.44;6160705;23;20036;-81
2023/09/06 05:19:27;;;;;;;9.27;5.75;;;;;;;16.26;100.00;101257.59;6161955;23;20017;-81
2023/09/06 05:21:55;;;;;;;8.80;6.07;;;;;;;16.32;100.00;101277.19;6162653;23;20022;-81
2023/09/06 05:24:21;;;;;;;9.63;5.97;;;;;;;16.33;100.00;101268.28;6162712;23;20077;-81
2023/09/06 05:26:51;;;;;;;8.55;6.03;;;;;;;16.41;100.00;101284.06;6162630;23;20025;-81
2023/09/06 05:29:18;;;;;;;10.43;6.13;;;;;;;16.44;100.00;101286.34;6165877;23;20308;-82
2023/09/06 05:31:45;;;;;;;11.05;6.43;;;;;;;16.39;100.00;101276.31;6162974;23;20025;-81
2023/09/06 05:34:13;;;;;;;10.35;6.30;;;;;;;16.48;100.00;101279.69;6162341;23;20069;-81
2023/09/06 05:36:40;;;;;;;11.82;6.15;;;;;;;16.50;100.00;101291.75;6162572;23;20032;-80
2023/09/06 05:39:07;;;;;;;12.23;6.60;;;;;;;16.56;100.00;101290.16;6161465;23;20037;-83
2023/09/06 05:41:34;;;;;;;8.15;5.55;;;;;;;16.64;100.00;101290.13;6162391;23;20096;-80
2023/09/06 05:44:00;;;;;;;7.60;5.93;;;;;;;16.68;100.00;101296.72;6163242;23;20029;-80
2023/09/06 05:46:27;;;;;;;7.25;6.03;;;;;;;16.78;100.00;101297.28;6161551;23;20034;-79
2023/09/06 05:48:53;;;;;;;9.02;5.82;;;;;;;16.82;100.00;101298.56;6162435;23;20458;-79
2023/09/06 05:51:23;;;;;;;8.52;5.68;;;;;;;16.91;100.00;101310.69;6161685;23;20026;-80
2023/09/06 05:53:49;;;;;;;12.02;6.60;;;;;;;16.92;100.00;101300.94;6161389;23;20021;-80
2023/09/06 05:56:16;;;;;;;11.85;6.00;;;;;;;17.00;100.00;101307.97;6160979;23;20028;-81
2023/09/06 05:58:43;;;;;;;10.25;6.20;;;;;;;17.10;100.00;101297.91;6161258;23;20056;-81
2023/09/06 06:01:11;;;;;;;8.57;6.18;;;;;;;17.20;100.00;101295.81;6160598;23;20025;-81
2023/09/06 06:03:41;;;;;;;8.15;6.03;;;;;;;17.33;100.00;101295.19;6160448;23;20021;-81
2023/09/06 06:06:14;;;;;;;11.57;7.13;;;;;;;17.48;99.50;101294.19;6159761;23;20191;-81
2023/09/06 06:08:42;;;;;;;10.90;5.90;;;;;;;17.58;98.64;101289.38;6163719;23;20057;-81
2023/09/06 06:11:09;;;;;;;9.07;6.30;;;;;;;17.62;98.05;101284.53;6176162;23;20061;-81
2023/09/06 06:13:37;;;;;;;10.82;5.93;;;;;;;17.74;97.66;101279.63;6181545;23;20013;-80
2023/09/06 06:16:05;;;;;;;8.88;5.93;;;;;;;17.98;97.04;101286.38;6180702;23;20040;-80
2023/09/06 06:18:31;;;;;;;8.48;5.55;;;;;;;18.21;96.21;101294.97;6175248;23;20052;-81
2023/09/06 06:20:59;;;;;;;11.25;6.05;;;;;;;19.08;93.67;101281.34;6164196;23;20022;-80
2023/09/06 06:23:26;;;;;;;6.35;5.15;;;;;;;20.29;87.74;101264.56;6163549;23;20100;-81
2023/09/06 06:25:57;;;;;;;8.18;5.20;;;;;;;20.99;82.90;101260.41;6162663;23;20053;-81
2023/09/06 06:28:24;;;;;;;6.97;4.80;;;;;;;21.43;80.75;101248.16;6164128;23;20053;-81
2023/09/06 06:30:50;;;;;;;7.60;5.28;;;;;;;22.20;77.63;101248.94;6163930;23;20049;-82
2023/09/06 06:33:17;;;;;;;7.10;4.63;;;;;;;22.31;76.53;101256.22;6163106;23;20532;-82
2023/09/06 06:35:43;;;;;;;10.13;4.90;;;;;;;22.29;75.41;101250.28;6162674;23;20029;-81
2023/09/06 06:38:11;;;;;;;10.77;5.13;;;;;;;22.42;75.10;101247.50;6163458;23;20045;-81
2023/09/06 06:40:38;;;;;;;8.13;5.00;;;;;;;22.73;74.41;101252.72;6162253;23;20025;-83
2023/09/06 06:43:06;;;;;;;6.38;4.60;;;;;;;22.88;74.03;101246.25;6162326;23;20045;-82
2023/09/06 06:45:33;;;;;;;7.53;4.55;;;;;;;23.32;72.83;101240.59;6162215;23;20035;-83
2023/09/06 06:48:00;;;;;;;6.22;4.40;;;;;;;23.03;72.46;101247.53;6162360;23;20350;-82
2023/09/06 06:50:27;;;;;;;6.40;4.72;;;;;;;23.36;72.77;101264.97;6164050;23;20036;-80
2023/09/06 06:52:53;;;;;;;8.07;5.00;;;;;;;23.45;71.96;101261.78;6166349;23;20025;-81
2023/09/06 06:55:20;;;;;;;9.98;4.90;;;;;;;23.87;71.12;101259.16;6163295;23;20029;-80
2023/09/06 06:57:47;;;;;;;5.80;4.57;;;;;;;24.29;69.05;101259.16;6165455;23;20028;-79
2023/09/06 07:00:17;;;;;;;8.05;4.63;;;;;;;24.42;68.89;101258.94;6164148;23;20073;-80
2023/09/06 07:02:45;;;;;;;6.43;4.63;;;;;;;24.15;69.14;101261.19;6163564;23;20080;-80
2023/09/06 07:05:14;;;;;;;6.85;4.55;;;;;;;24.35;68.45;101252.88;6165347;23;20022;-80
2023/09/06 07:07:40;;;;;;;7.90;4.40;;;;;;;24.29;67.57;101243.09;6165227;23;20070;-79
2023/09/06 07:10:08;;;;;;;10.82;5.07;;;;;;;24.20;67.71;101257.81;6165010;23;20017;-79
2023/09/06 07:12:36;;;;;;;7.22;4.55;;;;;;;24.93;66.75;101246.66;6165587;23;20134;-78
2023/09/06 07:15:02;;;;;;;6.85;4.70;;;;;;;24.07;67.54;101240.97;6169031;23;20035;-79
2023/09/06 07:17:31;;;;;;;6.05;4.40;;;;;;;24.65;66.83;101242.03;6170386;23;20015;-81
2023/09/06 07:19:58;;;;;;;10.57;4.57;;;;;;;24.57;66.57;101237.88;6165997;23;20045;-80
2023/09/06 07:22:27;;;;;;;6.47;4.50;;;;;;;25.10;65.24;101231.50;6164726;23;20018;-80
2023/09/06 07:24:53;;;;;;;5.65;4.50;;;;;;;24.59;66.20;101240.28;6166117;23;20021;-80
2023/09/06 07:27:20;;;;;;;7.13;4.90;;;;;;;25.07;64.98;101240.00;6168982;23;20025;-80
2023/09/06 07:29:50;;;;;;;11.45;4.38;;;;;;;25.31;64.70;101241.56;6168146;23;20049;-79
2023/09/06 07:32:17;;;;;;;6.05;4.57;;;;;;;25.41;63.80;101232.94;6171639;23;20032;-80
2023/09/06 07:34:45;;;;;;;7.28;4.55;;;;;;;24.49;65.24;101240.91;6171114;23;20037;-80
2023/09/06 07:37:14;;;;;;;8.60;4.47;;;;;;;24.16;65.45;101228.88;6171685;23;20057;-80
2023/09/06 07:39:41;;;;;;;5.72;4.13;;;;;;;24.51;65.17;101236.13;6168239;23;20049;-81
2023/09/06 07:42:08;;;;;;;7.38;4.38;;;;;;;24.75;65.43;101248.44;6168011;23;20080;-81
2023/09/06 07:44:33;;;;;;;6.35;4.40;;;;;;;24.66;65.22;101249.84;6168387;23;20029;-80
2023/09/06 07:47:00;;;;;;;5.25;4.15;;;;;;;25.25;64.35;101241.72;6166697;23;20027;-80
2023/09/06 07:49:30;;;;;;;7.80;4.50;;;;;;;25.36;64.07;101230.97;6166697;23;20025;-80
2023/09/06 07:51:59;;;;;;;5.30;4.07;;;;;;;24.96;63.92;101233.66;6166731;23;20025;-80
2023/09/06 07:54:25;;;;;;;9.07;4.90;;;;;;;24.98;63.86;101234.25;6169371;23;20022;-79
2023/09/06 07:56:52;;;;;;;7.05;4.75;;;;;;;25.12;63.66;101230.22;6167622;23;20094;-79
2023/09/06 08:09:33;;;;;;;8.95;4.60;;;;;;;25.66;62.39;101214.66;6137251;23;20469;-82
2023/09/06 08:12:00;;;;;;;6.70;4.60;;;;;;;25.25;63.17;101226.47;6139357;23;20028;-83
2023/09/06 08:14:27;;;;;;;5.90;4.40;;;;;;;25.52;62.30;101233.94;6136499;23;20037;-83
2023/09/06 08:16:53;;;;;;;8.15;4.53;;;;;;;25.42;62.51;101235.38;6133594;23;20081;-82
2023/09/06 08:19:20;;;;;;;7.20;4.68;;;;;;;25.62;61.65;101228.72;6138140;23;20099;-83
2023/09/06 08:21:47;;;;;;;7.85;4.30;;;;;;;25.74;61.78;101216.13;6139024;23;20033;-83
2023/09/06 08:24:13;;;;;;;10.07;4.63;;;;;;;26.17;61.06;101220.03;6139577;23;20033;-84
2023/09/06 08:26:41;;;;;;;8.25;4.50;;;;;;;25.86;61.20;101230.28;6138612;23;20049;-83
2023/09/06 08:29:08;;;;;;;9.20;5.15;;;;;;;25.85;61.38;101223.28;6137734;23;20021;-82
2023/09/06 08:31:35;;;;;;;7.90;5.00;;;;;;;25.64;61.22;101223.97;6138375;23;20033;-83
2023/09/06 08:34:02;;;;;;;7.20;4.72;;;;;;;25.78;60.92;101223.44;6139414;23;20089;-82
2023/09/06 08:36:28;;;;;;;7.15;4.93;;;;;;;26.52;59.92;101227.81;6140626;23;20036;-83
2023/09/06 08:38:55;;;;;;;6.75;4.70;;;;;;;26.34;60.69;101234.28;6140465;23;20026;-84
2023/09/06 08:41:21;;;;;;;5.93;4.90;;;;;;;26.05;60.29;101228.97;6138791;23;20501;-82
2023/09/06 08:43:51;;;;;;;6.32;5.10;;;;;;;25.92;61.05;101232.00;6139818;23;20465;-82
2023/09/06 08:46:21;;;;;;;7.93;5.07;;;;;;;26.18;59.63;101222.47;6140900;23;20030;-80
2023/09/06 08:48:48;;;;;;;9.18;5.07;;;;;;;25.76;61.04;101244.31;6138332;23;20082;-82
2023/09/06 08:51:16;;;;;;;7.70;4.65;;;;;;;26.88;59.03;101223.72;6140969;23;20033;-82
2023/09/06 08:53:43;;;;;;;7.22;4.82;;;;;;;26.65;59.01;101222.91;6139692;23;20022;-83
2023/09/06 08:56:10;;;;;;;6.07;4.97;;;;;;;26.93;58.28;101234.53;6140608;23;20025;-82
2023/09/06 08:58:37;;;;;;;7.45;5.18;;;;;;;26.55;58.03;101224.63;6140688;23;20029;-82
2023/09/06 09:01:05;;;;;;;6.28;4.90;;;;;;;26.52;58.47;101233.16;6141591;23;20022;-82
2023/09/06 09:03:32;;;;;;;6.50;5.20;;;;;;;26.54;58.05;101226.50;6143039;23;20033;-82
2023/09/06 09:06:00;;;;;;;6.20;4.90;;;;;;;26.46;58.59;101229.63;6142853;23;20070;-83
2023/09/06 09:08:28;;;;;;;9.65;5.88;;;;;;;26.77;57.91;101228.97;6140694;23;20236;-83
2023/09/06 09:11:08;;;;;;;8.35;5.10;;;;;;;27.00;57.46;101219.06;6144848;23;20057;-83
2023/09/06 09:13:35;;;;;;;8.63;5.32;;;;;;;26.70;56.95;101214.91;6145112;23;20039;-83
2023/09/06 09:16:08;;;;;;;7.43;5.22;;;;;;;26.42;57.99;101217.75;6143456;23;20026;-82
2023/09/06 09:18:35;;;;;;;5.88;5.10;;;;;;;27.06;57.68;101229.63;6141737;23;20082;-83
2023/09/06 09:21:02;;;;;;;6.93;5.10;;;;;;;27.19;56.26;101223.06;6139763;23;20254;-81
2023/09/06 09:23:29;;;;;;;7.25;5.30;;;;;;;26.90;54.94;101210.88;6139861;23;20113;-83
2023/09/06 09:25:55;;;;;;;6.38;5.22;;;;;;;26.63;55.05;101198.16;6140116;23;20033;-81
2023/09/06 09:28:22;;;;;;;7.03;5.50;;;;;;;26.59;54.98;101202.41;6140489;23;20033;-82
2023/09/06 09:30:49;;;;;;;7.05;5.32;;;;;;;26.63;55.09;101202.72;6140798;23;20033;-84
2023/09/06 09:33:19;;;;;;;6.15;5.10;;;;;;;26.52;55.84;101201.78;6142738;23;20033;-82
2023/09/06 09:35:47;;;;;;;9.05;5.47;;;;;;;26.55;56.02;101212.00;6140003;23;20026;-83
2023/09/06 09:38:14;;;;;;;7.35;5.43;;;;;;;26.50;55.81;101208.44;6140211;23;20045;-84
2023/09/06 09:40:40;;;;;;;6.65;5.28;;;;;;;26.54;56.39;101214.94;6141347;23;20018;-83
2023/09/06 09:43:07;;;;;;;8.32;5.47;;;;;;;26.72;55.69;101204.75;6142352;23;20030;-82
2023/09/06 09:45:43;;;;;;;8.55;5.38;;;;;;;27.14;55.70;101198.81;6141681;23;20021;-84
2023/09/06 09:48:10;;;;;;;10.20;5.57;;;;;;;27.22;55.12;101187.63;6140641;23;20109;-82
2023/09/06 09:50:41;;;;;;;7.40;5.13;;;;;;;27.03;55.28;101186.31;6140251;23;20040;-83
2023/09/06 09:53:09;;;;;;;10.77;5.38;;;;;;;27.20;55.38;101197.81;6139947;23;20459;-83
2023/09/06 09:55:42;;;;;;;8.90;5.38;;;;;;;26.84;54.89;101179.66;6141148;23;20026;-83
2023/09/06 09:58:11;;;;;;;7.72;5.35;;;;;;;27.15;55.55;101195.06;6140170;23;20026;-84
2023/09/06 10:00:39;;;;;;;6.80;5.28;;;;;;;27.34;54.28;101187.47;6139476;23;20032;-84
2023/09/06 10:03:08;;;;;;;7.63;4.93;;;;;;;27.53;54.76;101190.59;6139956;23;20056;-83
2023/09/06 10:05:36;;;;;;;6.18;5.32;;;;;;;27.46;53.55;101174.66;6139851;23;20025;-83
2023/09/06 10:08:08;;;;;;;9.05;5.75;;;;;;;27.27;53.98;101187.69;6094011;23;1102491;-82
2023/09/06 10:10:39;;;;;;;8.88;4.78;;;;;;;27.83;53.96;101180.16;6141854;23;20331;-82
2023/09/06 10:13:07;;;;;;;8.13;5.32;;;;;;;28.05;53.58;101172.75;6142015;23;20022;-83
2023/09/06 10:15:34;;;;;;;11.90;5.63;;;;;;;28.22;52.59;101183.41;6140529;23;20026;-81
2023/09/06 10:18:03;;;;;;;8.32;5.00;;;;;;;27.96;52.69;101170.81;6139227;23;20022;-82
2023/09/06 10:20:32;;;;;;;11.65;5.50;;;;;;;28.18;53.14;101181.44;6139214;23;20422;-83
2023/09/06 10:23:00;;;;;;;10.60;5.20;;;;;;;28.57;52.63;101176.56;6139654;23;20037;-83
2023/09/06 10:25:28;;;;;;;11.00;5.30;;;;;;;28.45;52.35;101181.34;6140277;23;20026;-82
2023/09/06 10:27:57;;;;;;;6.80;4.82;;;;;;;28.21;50.75;101152.19;6137864;23;20026;-82
2023/09/06 10:30:40;;;;;;;7.22;5.07;;;;;;;28.31;50.38;101143.34;6139045;23;20023;-82
2023/09/06 10:33:08;;;;;;;5.70;5.07;;;;;;;28.50;49.00;101146.38;6138806;23;20022;-81
2023/09/06 10:35:42;;;;;;;7.63;5.10;;;;;;;28.79;48.70;101150.28;6138938;23;20030;-81
2023/09/06 10:38:10;;;;;;;6.40;5.38;;;;;;;29.03;48.86;101150.63;6136967;23;20030;-82
2023/09/06 10:41:10;;;;;;;6.10;5.47;;;;;;;29.09;48.28;101144.19;6137157;23;20022;-83
2023/09/06 10:44:03;;;;;;;7.00;5.40;;;;;;;29.44;49.78;101162.31;6140842;23;20030;-83
2023/09/06 10:46:31;;;;;;;7.13;5.22;;;;;;;29.44;48.61;101148.81;6139456;23;20026;-83
2023/09/06 10:49:17;;;;;;;6.88;5.00;;;;;;;29.19;48.83;101160.38;6137524;23;20025;-79
2023/09/06 10:52:01;;;;;;;6.43;4.88;;;;;;;28.95;47.57;101137.69;6137667;23;20049;-81
2023/09/06 10:54:38;;;;;;;6.35;5.28;;;;;;;28.92;47.97;101140.91;6138084;23;20025;-81
2023/09/06 10:57:07;;;;;;;6.88;5.57;;;;;;;29.16;48.01;101135.84;6139409;23;20026;-82
2023/09/06 10:59:38;;;;;;;6.70;5.75;;;;;;;28.82;46.57;101127.44;6139380;23;20026;-82
2023/09/06 11:02:09;;;;;;;7.18;4.90;;;;;;;28.93;46.67;101123.66;6138789;23;20080;-81
2023/09/06 11:04:36;;;;;;;6.47;5.38;;;;;;;28.78;46.56;101129.00;6139272;23;20362;-81
2023/09/06 11:07:09;;;;;;;5.45;4.75;;;;;;;29.09;46.90;101119.94;6138565;23;20049;-83
2023/09/06 11:09:50;;;;;;;8.18;5.00;;;;;;;29.11;45.11;101108.88;6138300;23;20021;-79
2023/09/06 11:12:18;;;;;;;6.88;5.68;;;;;;;28.95;45.97;101118.81;6137614;23;20022;-81
2023/09/06 11:14:47;;;;;;;5.90;5.20;;;;;;;29.15;45.69;101113.47;6138096;23;20025;-83
2023/09/06 11:17:21;;;;;;;6.72;5.32;;;;;;;28.87;46.27;101114.75;6136731;23;20413;-82
2023/09/06 11:19:48;;;;;;;7.15;5.22;;;;;;;28.89;46.25;101115.31;6138623;23;20034;-82
2023/09/06 11:22:16;;;;;;;7.80;5.30;;;;;;;28.78;46.11;101102.06;6135625;23;20025;-81
2023/09/06 11:24:43;;;;;;;5.93;5.15;;;;;;;28.87;45.30;101092.41;6136318;23;20108;-81
2023/09/06 11:27:21;;;;;;;6.68;5.00;;;;;;;29.14;45.62;101106.47;6137950;23;20026;-82
2023/09/06 11:29:56;;;;;;;7.03;5.38;;;;;;;29.18;46.03;101109.44;6137223;23;20083;-82
2023/09/06 11:32:23;;;;;;;7.40;5.32;;;;;;;29.34;46.18;101098.38;6138644;23;20022;-81
2023/09/06 11:34:49;;;;;;;7.10;5.20;;;;;;;29.44;46.48;101119.16;6139927;23;20366;-80
2023/09/06 11:37:17;;;;;;;7.90;5.45;;;;;;;29.14;45.69;101106.47;6139102;23;20049;-81
2023/09/06 11:39:45;;;;;;;6.32;5.25;;;;;;;29.34;46.70;101129.91;6139024;23;20045;-80
2023/09/06 11:42:15;;;;;;;8.48;5.35;;;;;;;29.00;47.79;101114.25;6138367;23;20018;-79
2023/09/06 11:44:47;;;;;;;9.82;5.28;;;;;;;29.09;48.08;101119.13;6140576;23;20032;-80
2023/09/06 11:47:16;;;;;;;6.30;5.50;;;;;;;29.02;48.68;101116.69;6139773;23;20026;-82